Time;durP1;ratioP1;P1;durP2;ratioP2;P2;SDS_P1;SDS_P2;PMS_P1;PMS_P2;Temp;Humidity;BMP_temperature;BMP_pressure;BME280_temperature;BME280_humidity;BME280_pressure;Samples;Min_cycle;Max_cycle;Signal;HPM_P1;HPM_P2
2024/03/13 00:01:43;;;;;;;32.38;13.88;;;;;;;9.78;74.70;100276.69;10347162;28;20053;-64
2024/03/13 00:06:44;;;;;;;31.67;12.30;;;;;;;9.76;74.85;100276.00;10349680;28;20156;-64
2024/03/13 00:11:46;;;;;;;32.10;12.07;;;;;;;9.80;74.63;100274.66;10352160;28;20056;-67
2024/03/13 00:16:47;;;;;;;37.50;11.68;;;;;;;9.88;74.52;100278.13;10351212;28;20551;-67
2024/03/13 00:21:49;;;;;;;34.13;13.00;;;;;;;9.93;74.41;100274.91;10352323;28;20528;-67
2024/03/13 00:26:51;;;;;;;37.40;13.40;;;;;;;10.03;74.14;100283.63;10352163;28;20149;-67
2024/03/13 00:31:53;;;;;;;36.67;13.15;;;;;;;10.07;74.41;100281.41;10352027;28;20397;-65
2024/03/13 00:36:55;;;;;;;34.30;13.70;;;;;;;10.16;74.11;100275.00;10350628;28;20479;-65
2024/03/13 00:41:57;;;;;;;32.22;11.32;;;;;;;10.18;74.26;100280.19;10352911;28;20058;-65
2024/03/13 00:46:58;;;;;;;39.08;12.02;;;;;;;10.19;74.17;100280.03;10350959;28;20049;-65
2024/03/13 00:52:00;;;;;;;29.92;12.25;;;;;;;10.20;74.42;100280.88;10322583;28;20420;-63
2024/03/13 00:57:02;;;;;;;33.72;12.80;;;;;;;10.13;74.50;100286.94;10355082;28;20093;-67
2024/03/13 01:02:03;;;;;;;32.47;11.50;;;;;;;10.05;74.52;100281.59;10359030;28;20092;-67
2024/03/13 01:07:06;;;;;;;32.42;11.65;;;;;;;9.99;74.76;100271.56;10359691;28;20046;-65
2024/03/13 01:12:08;;;;;;;31.30;11.70;;;;;;;9.99;74.62;100263.50;10358612;28;20149;-63
2024/03/13 01:17:10;;;;;;;27.58;11.65;;;;;;;10.01;74.91;100272.22;10358681;28;20140;-67
2024/03/13 01:22:17;;;;;;;29.75;10.35;;;;;;;10.09;74.48;100272.19;10359840;28;20630;-61
2024/03/13 01:27:20;;;;;;;30.52;10.95;;;;;;;10.08;74.83;100261.63;10357078;28;20109;-61
2024/03/13 01:32:23;;;;;;;37.40;11.55;;;;;;;10.11;74.71;100247.81;10361216;28;20131;-61
2024/03/13 01:58:52;;;;;;;29.50;12.65;;;;;;;10.11;74.76;100231.69;10359042;28;20052;-60
2024/03/13 02:03:53;;;;;;;36.40;12.80;;;;;;;10.08;74.76;100227.53;10357250;28;20073;-60
2024/03/13 02:08:57;;;;;;;31.90;12.77;;;;;;;10.08;75.01;100222.16;10339547;28;20092;-60
2024/03/13 02:14:04;;;;;;;33.42;12.15;;;;;;;10.03;74.80;100226.38;10357618;28;20052;-61
2024/03/13 02:19:06;;;;;;;32.67;12.63;;;;;;;10.08;74.79;100219.47;10356393;28;20072;-60
2024/03/13 02:24:07;;;;;;;30.08;11.73;;;;;;;10.04;75.08;100220.00;10357487;28;20144;-60
2024/03/13 02:29:09;;;;;;;38.50;12.15;;;;;;;10.08;74.73;100227.53;10389179;28;20092;-63
2024/03/13 02:34:10;;;;;;;27.83;11.73;;;;;;;10.09;74.74;100222.97;10396704;28;20060;-61
2024/03/13 02:39:17;;;;;;;31.85;12.13;;;;;;;10.10;74.74;100216.63;10398983;28;20049;-61
2024/03/13 02:44:19;;;;;;;27.17;10.63;;;;;;;10.07;74.86;100225.00;10397149;28;20048;-61
2024/03/13 02:49:21;;;;;;;29.55;10.82;;;;;;;10.07;75.15;100227.69;10395038;28;20049;-60
2024/03/13 02:54:22;;;;;;;25.15;10.98;;;;;;;10.04;74.94;100220.00;10399320;28;20091;-61
2024/03/13 02:59:24;;;;;;;29.25;11.05;;;;;;;10.06;75.26;100226.88;10395711;28;20515;-60
2024/03/13 03:04:25;;;;;;;28.58;10.38;;;;;;;10.07;75.21;100233.94;10393355;28;20053;-60
2024/03/13 03:09:27;;;;;;;23.15;10.13;;;;;;;10.08;74.99;100224.84;10394276;28;20050;-60
2024/03/13 03:14:28;;;;;;;30.13;11.32;;;;;;;10.07;75.10;100225.88;10390811;28;20061;-61
2024/03/13 03:19:29;;;;;;;28.50;10.35;;;;;;;10.04;75.44;100225.38;10393346;28;20128;-60
2024/03/13 03:24:31;;;;;;;30.10;11.00;;;;;;;10.06;75.46;100240.28;10392777;28;20049;-60
2024/03/13 03:29:32;;;;;;;27.80;11.07;;;;;;;10.09;75.16;100234.59;10356835;28;20050;-61
2024/03/13 03:34:34;;;;;;;23.60;9.63;;;;;;;10.07;75.36;100238.44;10354180;28;20046;-60
2024/03/13 03:39:42;;;;;;;26.95;10.93;;;;;;;10.05;75.39;100243.16;10352072;28;20401;-61
2024/03/13 03:44:44;;;;;;;25.98;10.02;;;;;;;10.01;75.51;100237.31;10351716;28;20058;-64
2024/03/13 03:49:45;;;;;;;30.17;10.25;;;;;;;10.01;75.59;100225.72;10355176;28;20046;-64
2024/03/13 03:54:47;;;;;;;26.58;10.20;;;;;;;10.01;75.59;100229.25;10353718;28;20053;-64
2024/03/13 03:59:49;;;;;;;27.63;10.65;;;;;;;10.00;75.72;100237.47;10335848;28;20113;-64
2024/03/13 04:04:50;;;;;;;27.65;10.52;;;;;;;9.99;75.82;100239.34;10351754;28;20057;-62
2024/03/13 04:09:52;;;;;;;23.63;10.38;;;;;;;9.99;75.68;100249.22;10350229;28;20042;-63
2024/03/13 04:14:53;;;;;;;21.73;9.07;;;;;;;10.01;75.70;100242.69;10334976;28;20042;-63
2024/03/13 04:19:55;;;;;;;23.42;8.82;;;;;;;9.98;75.50;100244.88;10348464;28;20168;-63
2024/03/13 04:24:56;;;;;;;21.17;9.25;;;;;;;10.00;75.75;100234.81;10350391;28;20050;-63
2024/03/13 04:29:59;;;;;;;22.38;9.70;;;;;;;9.96;75.55;100238.84;10349760;28;20128;-64
2024/03/13 04:35:02;;;;;;;22.20;9.70;;;;;;;9.95;75.73;100243.34;10351770;28;20078;-63
2024/03/13 04:40:04;;;;;;;18.13;8.93;;;;;;;9.96;75.89;100242.38;10348689;28;20060;-63
2024/03/13 04:45:06;;;;;;;18.08;7.70;;;;;;;9.96;75.97;100250.41;10352450;28;20049;-64
2024/03/13 04:50:08;;;;;;;15.57;8.15;;;;;;;9.95;75.71;100259.47;10349434;28;20578;-62
2024/03/13 04:55:10;;;;;;;19.73;8.40;;;;;;;9.96;75.80;100266.53;10353359;28;20056;-62
2024/03/13 05:00:13;;;;;;;20.80;7.63;;;;;;;9.93;76.04;100270.41;10358440;28;20046;-62
2024/03/13 05:05:15;;;;;;;18.67;8.38;;;;;;;9.92;76.16;100279.47;10355950;28;20069;-61
2024/03/13 05:10:16;;;;;;;17.73;8.30;;;;;;;9.96;76.11;100284.50;10341885;28;20045;-61
2024/03/13 05:15:19;;;;;;;16.50;7.28;;;;;;;9.91;76.01;100285.00;10357948;28;20588;-62
2024/03/13 05:20:22;;;;;;;23.42;8.55;;;;;;;9.95;76.00;100278.25;10359320;28;20057;-62
2024/03/13 05:25:24;;;;;;;22.85;7.45;;;;;;;9.93;76.07;100285.66;10358285;28;20065;-62
2024/03/13 05:30:25;;;;;;;15.18;6.40;;;;;;;9.80;75.98;100288.06;10362701;28;20048;-61
2024/03/13 05:35:27;;;;;;;15.52;7.47;;;;;;;9.77;76.12;100286.56;10363790;28;20133;-61
2024/03/13 05:40:28;;;;;;;19.02;8.25;;;;;;;9.79;76.33;100281.84;10365724;28;20065;-61
2024/03/13 05:45:30;;;;;;;13.80;6.65;;;;;;;9.87;75.94;100289.03;10354046;28;20045;-66
2024/03/13 05:50:35;;;;;;;16.80;6.97;;;;;;;10.00;75.99;100280.44;10352776;28;20062;-66
2024/03/13 05:55:37;;;;;;;16.30;7.38;;;;;;;10.07;75.56;100284.09;10356052;28;20140;-65
2024/03/13 06:00:41;;;;;;;15.70;5.68;;;;;;;10.11;75.54;100297.03;10339541;28;20057;-65
2024/03/13 06:05:42;;;;;;;14.35;5.65;;;;;;;10.14;76.02;100295.81;10356439;28;20053;-63
2024/03/13 06:10:44;;;;;;;21.92;6.70;;;;;;;10.18;75.58;100296.31;10351151;28;20058;-65
2024/03/13 06:15:45;;;;;;;13.35;5.70;;;;;;;10.26;76.09;100297.09;10354888;28;20058;-65
2024/03/13 06:20:47;;;;;;;14.35;5.13;;;;;;;10.33;75.59;100305.34;10355784;28;20053;-65
2024/03/13 06:25:49;;;;;;;12.80;5.03;;;;;;;10.32;75.81;100317.94;10353132;28;20050;-66
2024/03/13 06:30:51;;;;;;;10.35;5.32;;;;;;;10.34;75.73;100298.94;10353938;28;20046;-65
2024/03/13 06:35:54;;;;;;;13.50;5.57;;;;;;;10.31;76.04;100302.84;10353653;28;20041;-65
2024/03/13 06:40:56;;;;;;;11.00;5.97;;;;;;;10.39;75.83;100303.81;10353039;28;20049;-65
2024/03/13 06:45:58;;;;;;;12.48;5.57;;;;;;;10.46;75.58;100305.59;10351400;28;20061;-65
2024/03/13 06:51:05;;;;;;;12.13;5.88;;;;;;;10.51;75.47;100305.09;10338541;28;20048;-65
2024/03/13 06:56:07;;;;;;;12.02;4.90;;;;;;;10.43;75.72;100300.59;10349393;28;20045;-63
2024/03/13 07:01:12;;;;;;;12.63;5.25;;;;;;;10.48;75.50;100308.94;10353930;28;20672;-65
2024/03/13 07:06:14;;;;;;;9.95;4.57;;;;;;;10.50;75.86;100322.22;10353293;28;20052;-64
2024/03/13 07:11:16;;;;;;;8.65;4.28;;;;;;;10.55;75.80;100322.53;10355013;28;20050;-59
2024/03/13 07:16:19;;;;;;;9.30;4.00;;;;;;;10.58;75.55;100327.53;10359728;28;20059;-59
2024/03/13 07:21:21;;;;;;;8.07;4.32;;;;;;;10.65;75.47;100336.59;10358547;28;20089;-60
2024/03/13 07:26:22;;;;;;;9.52;3.60;;;;;;;10.75;75.27;100339.03;10361033;28;20425;-59
2024/03/13 07:31:27;;;;;;;8.00;3.60;;;;;;;10.85;75.07;100330.75;10363339;28;20477;-60
2024/03/13 07:36:31;;;;;;;7.10;3.60;;;;;;;10.90;75.57;100339.13;10359202;28;20144;-59
2024/03/13 07:41:34;;;;;;;5.82;3.22;;;;;;;10.94;75.57;100334.22;10359330;28;20054;-60
2024/03/13 07:46:35;;;;;;;6.78;3.05;;;;;;;11.00;75.71;100349.63;10359291;28;20145;-60
2024/03/13 07:51:38;;;;;;;9.05;4.20;;;;;;;11.03;75.38;100344.72;10353405;28;20151;-59
2024/03/13 07:56:40;;;;;;;9.02;4.15;;;;;;;11.09;75.43;100348.56;10355919;28;20057;-60
2024/03/13 08:01:41;;;;;;;7.78;4.65;;;;;;;11.01;75.92;100359.38;10357943;28;20065;-60
2024/03/13 08:06:43;;;;;;;8.52;4.55;;;;;;;11.07;75.77;100354.13;10354173;28;20146;-60
2024/03/13 08:12:03;;;;;;;10.48;5.30;;;;;;;11.07;75.75;100362.19;10357000;28;20078;-59
2024/03/13 08:17:22;;;;;;;11.10;5.53;;;;;;;11.08;75.55;100355.81;10332737;28;20041;-60
2024/03/13 08:22:44;;;;;;;11.63;6.18;;;;;;;11.03;75.81;100358.19;10354667;28;20053;-64
2024/03/13 08:28:03;;;;;;;14.32;7.05;;;;;;;11.19;75.98;100370.69;10348357;28;20521;-65
2024/03/13 08:33:22;;;;;;;18.60;6.65;;;;;;;11.27;76.48;100375.16;10345576;28;20042;-64
2024/03/13 08:38:41;;;;;;;11.98;6.30;;;;;;;11.38;76.32;100379.31;10351823;28;20072;-64
2024/03/13 08:44:03;;;;;;;10.93;5.50;;;;;;;11.52;75.79;100375.81;10352793;28;20046;-64
2024/03/13 08:49:22;;;;;;;12.95;6.22;;;;;;;11.55;76.00;100386.19;10351545;28;20077;-63
2024/03/13 08:54:43;;;;;;;11.70;5.93;;;;;;;11.81;75.16;100388.50;10352556;28;20042;-64
2024/03/13 09:00:10;;;;;;;7.97;4.55;;;;;;;11.92;75.59;100391.81;10353065;28;20050;-65
2024/03/13 09:05:32;;;;;;;9.93;5.35;;;;;;;11.81;75.06;100390.34;10351734;28;20049;-65
2024/03/13 09:10:51;;;;;;;8.15;4.45;;;;;;;11.78;74.71;100399.63;10350507;28;20066;-65
2024/03/13 09:15:53;;;;;;;8.45;4.90;;;;;;;11.85;74.54;100399.75;10348717;28;20060;-64
2024/03/13 09:20:55;;;;;;;9.05;4.97;;;;;;;11.90;74.87;100408.13;10361698;28;20104;-63
2024/03/13 09:25:57;;;;;;;8.32;5.22;;;;;;;11.93;74.39;100409.63;10357866;28;20053;-62
2024/03/13 09:31:01;;;;;;;9.55;5.35;;;;;;;12.12;74.31;100413.66;10341928;28;20057;-65
2024/03/13 09:36:05;;;;;;;8.18;5.03;;;;;;;12.38;73.88;100410.50;10363516;28;20113;-61
2024/03/13 09:41:11;;;;;;;8.93;4.82;;;;;;;12.52;73.86;100416.91;10370503;28;20108;-61
2024/03/13 09:46:13;;;;;;;9.35;4.15;;;;;;;12.37;73.89;100417.75;10380606;28;20060;-60
2024/03/13 09:51:15;;;;;;;8.23;4.97;;;;;;;12.33;74.18;100419.16;10384570;28;20560;-61
2024/03/13 09:56:18;;;;;;;10.50;5.57;;;;;;;12.41;73.96;100419.06;10383675;28;20048;-61
2024/03/13 10:01:26;;;;;;;9.43;6.10;;;;;;;12.45;73.50;100427.59;10384331;28;20080;-61
2024/03/13 10:06:32;;;;;;;11.27;6.10;;;;;;;12.40;73.81;100430.88;10376788;28;20050;-60
2024/03/13 10:11:34;;;;;;;12.25;6.43;;;;;;;12.36;73.69;100426.88;10373185;28;20359;-61
2024/03/13 10:16:36;;;;;;;11.07;6.75;;;;;;;12.41;73.27;100434.41;10371248;28;20114;-61
2024/03/13 10:21:40;;;;;;;13.88;7.32;;;;;;;12.36;73.57;100432.28;10371076;28;20045;-61
2024/03/13 10:26:45;;;;;;;14.88;7.72;;;;;;;12.53;73.49;100438.28;10368097;28;20062;-60
2024/03/13 10:31:51;;;;;;;16.08;8.55;;;;;;;12.45;73.47;100436.53;10370273;28;20112;-61
2024/03/13 10:36:53;;;;;;;13.52;7.95;;;;;;;12.35;74.00;100438.66;10354514;28;20058;-61
2024/03/13 10:42:08;;;;;;;16.60;9.30;;;;;;;12.45;73.07;100435.69;10367166;28;20046;-60
2024/03/13 10:47:12;;;;;;;20.45;10.05;;;;;;;12.46;73.54;100427.44;10373241;28;20042;-59
2024/03/13 10:52:17;;;;;;;24.05;11.93;;;;;;;12.52;73.29;100430.38;10372211;28;20081;-60
2024/03/13 10:57:18;;;;;;;19.20;10.27;;;;;;;12.65;73.29;100428.69;10368096;28;20042;-59
2024/03/13 11:02:20;;;;;;;19.90;10.15;;;;;;;12.98;72.89;100430.16;10370929;28;20423;-66
2024/03/13 11:07:22;;;;;;;19.70;11.25;;;;;;;12.98;73.11;100424.75;10353650;28;20527;-66
2024/03/13 11:12:25;;;;;;;21.98;10.75;;;;;;;13.09;72.58;100421.53;10350902;28;20050;-67
2024/03/13 11:17:28;;;;;;;21.13;10.68;;;;;;;13.21;72.68;100432.66;10356481;28;20051;-60
2024/03/13 11:22:33;;;;;;;15.35;8.40;;;;;;;13.17;72.75;100434.09;10364722;28;20058;-59
2024/03/13 11:27:42;;;;;;;19.05;8.75;;;;;;;13.10;72.69;100437.56;10361153;28;20094;-60
2024/03/13 11:32:44;;;;;;;12.90;7.72;;;;;;;12.93;72.86;100436.09;10356598;28;20049;-59
2024/03/13 11:37:47;;;;;;;14.55;9.57;;;;;;;12.94;72.92;100435.09;10362311;28;20095;-59
2024/03/13 11:42:48;;;;;;;16.17;9.13;;;;;;;13.03;72.68;100427.69;10366977;28;20109;-60
2024/03/13 11:47:57;;;;;;;14.52;8.80;;;;;;;12.99;72.76;100426.41;10364389;28;20064;-59
2024/03/13 11:53:01;;;;;;;15.55;8.70;;;;;;;13.11;72.64;100414.09;10358227;28;20112;-64
2024/03/13 11:58:25;;;;;;;13.82;8.45;;;;;;;13.21;72.40;100403.84;10353486;28;20506;-65
2024/03/13 12:03:35;;;;;;;16.25;8.18;;;;;;;13.54;71.76;100403.34;10353989;28;20052;-65
2024/03/13 12:08:36;;;;;;;16.35;9.63;;;;;;;13.58;71.81;100403.78;10354220;28;20911;-65
2024/03/13 12:13:38;;;;;;;11.43;6.10;;;;;;;13.65;71.81;100399.28;10345549;28;20077;-65
2024/03/13 12:18:49;;;;;;;12.93;7.80;;;;;;;13.55;72.05;100391.50;10351271;28;20060;-66
2024/03/13 12:23:52;;;;;;;13.07;7.97;;;;;;;13.85;71.61;100384.06;10350034;28;20661;-66
2024/03/13 12:28:57;;;;;;;12.10;7.65;;;;;;;13.95;71.40;100393.69;10350001;28;20058;-64
2024/03/13 12:33:58;;;;;;;13.95;7.20;;;;;;;13.86;71.47;100384.88;10353239;28;20076;-66
2024/03/13 12:39:00;;;;;;;12.27;7.80;;;;;;;14.01;71.14;100390.19;10350064;28;20088;-64
2024/03/13 12:44:04;;;;;;;12.65;8.05;;;;;;;14.01;71.19;100391.03;10346853;28;20058;-65
2024/03/13 12:49:12;;;;;;;16.27;10.57;;;;;;;13.77;71.45;100388.78;10351435;28;20060;-66
2024/03/13 12:54:16;;;;;;;14.45;9.18;;;;;;;13.73;71.71;100377.53;10349457;28;20053;-66
2024/03/13 12:59:21;;;;;;;17.95;9.70;;;;;;;14.00;70.91;100383.09;10357240;28;20042;-65
2024/03/13 13:04:23;;;;;;;15.77;10.23;;;;;;;13.85;71.13;100378.66;10357272;28;20093;-59
2024/03/13 13:09:26;;;;;;;17.15;10.15;;;;;;;13.81;71.41;100374.69;10364577;28;20042;-60
2024/03/13 13:14:29;;;;;;;15.73;10.10;;;;;;;13.94;71.41;100373.94;10361846;28;20058;-59
2024/03/13 13:19:32;;;;;;;15.57;9.63;;;;;;;13.81;71.50;100373.84;10363311;28;20049;-61
2024/03/13 13:24:33;;;;;;;13.45;8.77;;;;;;;13.95;71.62;100369.38;10365221;28;20042;-59
2024/03/13 13:29:35;;;;;;;12.88;7.53;;;;;;;14.04;71.44;100371.72;10363844;28;20056;-59
2024/03/13 13:34:39;;;;;;;10.38;7.45;;;;;;;14.09;71.42;100373.81;10360818;28;20053;-60
2024/03/13 13:39:40;;;;;;;11.82;7.45;;;;;;;13.94;71.72;100373.94;10364622;28;20742;-59
2024/03/13 13:44:42;;;;;;;12.93;7.22;;;;;;;13.93;71.63;100372.28;10339721;28;20065;-60
2024/03/13 13:49:44;;;;;;;15.90;8.88;;;;;;;13.83;72.01;100372.63;10365631;28;20054;-59
2024/03/13 13:54:46;;;;;;;19.08;10.82;;;;;;;13.82;72.23;100370.09;10364252;28;20065;-60
2024/03/13 13:59:47;;;;;;;18.52;10.82;;;;;;;13.98;72.06;100364.41;10368384;28;20056;-60
2024/03/13 14:04:49;;;;;;;20.95;11.63;;;;;;;13.97;72.24;100367.31;10361750;28;20137;-60
2024/03/13 14:09:50;;;;;;;22.35;12.82;;;;;;;14.11;72.05;100366.34;10362498;28;20511;-59
2024/03/13 14:14:53;;;;;;;19.20;11.32;;;;;;;14.05;72.00;100362.56;10361785;28;20056;-59
2024/03/13 14:19:57;;;;;;;22.95;11.68;;;;;;;13.95;72.39;100362.09;10364625;28;20042;-60
2024/03/13 14:24:58;;;;;;;20.35;11.27;;;;;;;14.06;72.26;100363.44;10376125;28;20050;-59
2024/03/13 14:30:00;;;;;;;20.25;11.32;;;;;;;14.14;72.18;100357.84;10377320;28;20133;-59
2024/03/13 14:35:03;;;;;;;18.92;10.73;;;;;;;14.06;72.55;100363.44;10376139;28;20112;-60
2024/03/13 14:40:12;;;;;;;;;;;;;;;14.12;72.77;100368.03;10377777;28;20193;-59
2024/03/13 14:45:13;;;;;;;17.20;10.07;;;;;;;14.13;72.60;100363.47;10371903;28;19933;-59
2024/03/13 14:50:18;;;;;;;17.92;9.35;;;;;;;14.18;72.52;100361.81;10369403;28;20057;-59
2024/03/13 14:55:22;;;;;;;15.00;8.83;;;;;;;14.39;72.39;100358.16;10365704;28;20050;-59
2024/03/13 15:00:24;;;;;;;12.95;8.75;;;;;;;14.55;72.02;100350.75;10364735;28;20096;-59
2024/03/13 15:05:26;;;;;;;16.00;9.13;;;;;;;14.65;71.78;100348.53;10367093;28;20133;-59
2024/03/13 15:10:32;;;;;;;12.97;8.30;;;;;;;14.70;71.80;100340.66;10371393;28;20049;-60
2024/03/13 15:15:34;;;;;;;15.60;8.70;;;;;;;14.85;71.41;100333.22;10372104;28;20054;-60
2024/03/13 15:20:36;;;;;;;18.77;10.13;;;;;;;14.79;71.63;100346.69;10377843;28;20060;-61
2024/03/13 15:25:39;;;;;;;15.10;9.75;;;;;;;14.72;71.78;100354.81;10361217;28;20340;-59
2024/03/13 15:30:40;;;;;;;18.20;10.65;;;;;;;14.75;71.67;100354.41;10367117;28;20057;-59
2024/03/13 15:35:43;;;;;;;14.95;9.80;;;;;;;14.83;71.25;100354.22;10364744;28;20042;-60
2024/03/13 15:40:45;;;;;;;16.65;9.85;;;;;;;14.81;71.71;100347.31;10361445;28;20116;-60
2024/03/13 15:45:47;;;;;;;15.43;10.10;;;;;;;15.07;70.95;100350.13;10356310;28;20050;-61
2024/03/13 15:50:50;;;;;;;14.52;8.98;;;;;;;15.08;71.05;100350.94;10351806;28;20038;-61
2024/03/13 15:55:53;;;;;;;19.90;10.55;;;;;;;14.90;71.19;100351.53;10354505;28;20088;-61
2024/03/13 16:00:54;;;;;;;21.90;11.00;;;;;;;14.86;71.15;100348.38;10359956;28;20045;-61
2024/03/13 16:05:56;;;;;;;18.67;10.23;;;;;;;14.71;71.66;100355.00;10367703;28;20353;-60
2024/03/13 16:10:58;;;;;;;17.40;11.85;;;;;;;14.73;71.36;100353.78;10348892;28;20049;-60
2024/03/13 16:16:00;;;;;;;20.38;12.05;;;;;;;14.75;71.54;100350.84;10373636;28;20508;-60
2024/03/13 16:21:02;;;;;;;17.40;10.82;;;;;;;14.82;71.10;100359.84;10371855;28;20077;-61
2024/03/13 16:26:04;;;;;;;16.63;11.02;;;;;;;14.76;71.18;100353.38;10376451;28;20061;-61
2024/03/13 16:31:06;;;;;;;21.50;11.45;;;;;;;14.77;71.36;100359.59;10368072;28;20069;-61
2024/03/13 16:36:08;;;;;;;19.38;11.95;;;;;;;14.78;71.34;100364.00;10355101;28;20505;-66
2024/03/13 16:41:10;;;;;;;18.77;12.18;;;;;;;14.85;71.33;100354.03;10347908;28;20053;-65
2024/03/13 16:46:12;;;;;;;17.05;11.30;;;;;;;14.94;70.86;100352.78;10347379;28;20050;-65
2024/03/13 16:51:13;;;;;;;26.60;15.45;;;;;;;14.77;71.32;100360.47;10347762;28;20045;-64
2024/03/13 16:56:15;;;;;;;17.83;11.38;;;;;;;14.83;71.27;100353.38;10349480;28;20131;-63
2024/03/13 17:01:18;;;;;;;17.35;11.07;;;;;;;14.79;71.34;100358.38;10351363;28;20609;-63
2024/03/13 17:06:21;;;;;;;17.70;10.55;;;;;;;14.77;71.46;100375.84;10343857;28;20058;-63
2024/03/13 17:11:23;;;;;;;19.35;11.75;;;;;;;14.78;71.42;100370.22;10352326;28;21099;-64
2024/03/13 17:16:27;;;;;;;18.88;10.55;;;;;;;14.78;71.41;100367.53;10352472;28;20054;-62
2024/03/13 17:21:29;;;;;;;21.42;12.52;;;;;;;14.82;71.27;100373.38;10354887;28;20485;-63
2024/03/13 17:26:30;;;;;;;24.30;12.38;;;;;;;14.80;71.48;100378.16;10350486;28;20061;-64
2024/03/13 17:31:32;;;;;;;14.90;9.77;;;;;;;14.80;71.34;100378.97;10329351;28;20041;-64
2024/03/13 17:36:33;;;;;;;14.57;8.93;;;;;;;14.73;71.81;100382.69;10347016;28;20050;-64
2024/03/13 17:41:36;;;;;;;14.48;9.85;;;;;;;14.69;71.83;100371.44;10359252;28;20145;-61
2024/03/13 17:46:37;;;;;;;14.65;8.27;;;;;;;14.65;71.88;100381.00;10358025;28;20056;-58
2024/03/13 17:51:39;;;;;;;15.55;8.88;;;;;;;14.60;72.00;100381.63;10358970;28;20386;-58
2024/03/13 17:56:40;;;;;;;19.75;10.27;;;;;;;14.43;72.54;100381.06;10339702;28;20064;-58
2024/03/13 18:01:43;;;;;;;20.67;12.13;;;;;;;14.48;72.36;100391.31;10353064;28;20141;-57
2024/03/13 18:06:45;;;;;;;16.27;8.93;;;;;;;14.32;72.94;100397.88;10354863;28;20128;-60
2024/03/13 18:11:49;;;;;;;15.82;8.95;;;;;;;14.25;73.24;100394.31;10354694;28;20077;-59
2024/03/13 18:16:51;;;;;;;17.00;8.15;;;;;;;14.17;73.49;100397.16;10354173;28;20115;-58
2024/03/13 18:21:52;;;;;;;16.77;9.27;;;;;;;14.21;73.31;100398.44;10336320;28;20144;-57
2024/03/13 18:26:54;;;;;;;14.63;8.70;;;;;;;14.20;73.25;100391.38;10368375;28;20404;-61
2024/03/13 18:31:55;;;;;;;19.63;10.05;;;;;;;14.24;73.45;100393.47;10378220;28;20052;-58
2024/03/13 18:36:58;;;;;;;18.23;9.80;;;;;;;14.36;73.08;100399.16;10396821;28;20045;-58
2024/03/13 18:41:59;;;;;;;17.67;9.88;;;;;;;14.28;73.35;100393.91;10398046;28;20373;-60
2024/03/13 18:47:01;;;;;;;16.35;9.85;;;;;;;14.30;73.46;100394.56;10398252;28;20095;-59
2024/03/13 18:52:03;;;;;;;17.35;10.23;;;;;;;14.27;73.51;100389.53;10395349;28;20119;-61
2024/03/13 18:57:05;;;;;;;22.50;10.52;;;;;;;14.28;73.62;100393.91;10397303;28;20041;-61
2024/03/13 19:02:07;;;;;;;19.00;10.73;;;;;;;14.32;73.59;100400.59;10392120;28;20053;-61
2024/03/13 19:07:11;;;;;;;20.83;12.00;;;;;;;14.21;73.94;100409.25;10394538;28;20386;-60
2024/03/13 19:12:13;;;;;;;17.83;10.52;;;;;;;14.25;73.58;100403.25;10392170;28;20132;-60
2024/03/13 19:17:14;;;;;;;20.48;11.50;;;;;;;14.23;73.86;100407.19;10391263;28;20087;-60
2024/03/13 19:22:16;;;;;;;17.80;10.82;;;;;;;14.20;73.76;100403.00;10392943;28;20049;-60
2024/03/13 19:27:17;;;;;;;21.35;12.38;;;;;;;14.13;74.00;100404.84;10374249;28;20165;-60
2024/03/13 19:32:19;;;;;;;22.27;12.13;;;;;;;14.17;74.03;100400.69;10349174;28;20056;-61
2024/03/13 19:37:21;;;;;;;20.23;11.35;;;;;;;14.10;74.01;100405.25;10350129;28;20049;-61
2024/03/13 19:42:22;;;;;;;23.48;12.68;;;;;;;14.16;73.97;100401.75;10348291;28;20038;-60
2024/03/13 19:47:27;;;;;;;26.48;13.57;;;;;;;14.20;73.71;100402.19;10353807;28;20493;-61
2024/03/13 19:52:31;;;;;;;24.08;11.20;;;;;;;14.22;73.65;100411.75;10353281;28;20077;-60
2024/03/13 19:57:33;;;;;;;19.33;11.20;;;;;;;14.27;73.45;100416.56;10353927;28;20505;-60
2024/03/13 20:02:36;;;;;;;21.02;11.43;;;;;;;14.25;73.57;100405.13;10353754;28;20061;-60
2024/03/13 20:07:37;;;;;;;19.10;11.13;;;;;;;14.28;73.49;100402.03;10352486;28;20145;-59
2024/03/13 20:12:42;;;;;;;21.80;12.13;;;;;;;14.25;73.33;100400.53;10353419;28;20050;-60
2024/03/13 20:17:43;;;;;;;23.48;11.50;;;;;;;14.19;73.45;100404.03;10351344;28;20057;-58
2024/03/13 20:22:45;;;;;;;21.42;11.68;;;;;;;14.18;73.63;100412.34;10349656;28;20074;-59
2024/03/13 20:27:47;;;;;;;24.75;11.93;;;;;;;14.19;73.58;100406.75;10351073;28;20052;-58
2024/03/13 20:32:48;;;;;;;20.40;11.77;;;;;;;14.22;73.38;100408.22;10349643;28;20404;-59
2024/03/13 20:37:50;;;;;;;21.10;11.65;;;;;;;14.21;73.58;100404.66;10348202;28;20116;-58
2024/03/13 20:42:51;;;;;;;23.67;12.02;;;;;;;14.14;73.67;100406.50;10346708;28;21028;-58
2024/03/13 20:47:53;;;;;;;24.98;12.75;;;;;;;14.13;73.88;100407.53;10349581;28;20497;-58
2024/03/13 20:52:54;;;;;;;24.15;12.93;;;;;;;14.09;73.91;100408.97;10353367;28;20062;-60
2024/03/13 20:57:57;;;;;;;24.67;13.27;;;;;;;14.05;74.16;100418.50;10351508;28;20394;-58
2024/03/13 21:02:58;;;;;;;24.02;12.52;;;;;;;14.03;74.09;100413.28;10345209;28;20058;-59
2024/03/13 21:08:00;;;;;;;25.13;12.57;;;;;;;14.02;74.34;100408.94;10347654;28;20120;-59
2024/03/13 21:13:01;;;;;;;24.85;12.68;;;;;;;14.05;74.23;100410.41;10348582;28;20050;-58
2024/03/13 21:18:04;;;;;;;25.88;12.75;;;;;;;14.12;74.05;100405.88;10353342;28;20054;-59
2024/03/13 21:23:05;;;;;;;25.55;12.60;;;;;;;14.20;73.75;100405.72;10355435;28;20053;-60
2024/03/13 21:28:08;;;;;;;34.63;18.60;;;;;;;14.24;73.64;100408.88;10360378;28;20074;-59
2024/03/13 21:33:11;;;;;;;22.60;12.55;;;;;;;14.25;73.48;100407.81;10358866;28;20100;-59
2024/03/13 21:38:12;;;;;;;19.95;11.48;;;;;;;14.23;73.52;100404.47;10356578;28;20050;-59
2024/03/13 21:43:14;;;;;;;22.77;12.18;;;;;;;14.18;73.49;100396.97;10358352;28;20050;-57
2024/03/13 21:48:16;;;;;;;22.63;11.90;;;;;;;14.16;73.46;100398.19;10357339;28;20050;-58
2024/03/13 21:53:18;;;;;;;23.17;10.85;;;;;;;14.14;73.57;100403.81;10360750;28;20073;-60
2024/03/13 21:58:19;;;;;;;23.98;12.40;;;;;;;14.16;73.50;100400.88;10356510;28;20053;-58
2024/03/13 22:03:20;;;;;;;20.33;11.32;;;;;;;14.16;73.55;100390.94;10355208;28;20050;-60
2024/03/13 22:08:22;;;;;;;19.45;10.70;;;;;;;14.16;73.43;100396.34;10356969;28;20515;-59
2024/03/13 22:13:23;;;;;;;24.20;11.35;;;;;;;14.16;73.42;100390.06;10358272;28;20050;-57
2024/03/13 22:18:26;;;;;;;23.08;10.90;;;;;;;14.15;73.25;100391.94;10358867;28;20045;-58
2024/03/13 22:23:27;;;;;;;17.55;10.60;;;;;;;14.09;73.48;100388.16;10354187;28;20413;-58
2024/03/13 22:28:29;;;;;;;19.27;10.75;;;;;;;14.07;73.42;100387.53;10368724;28;20056;-60
2024/03/13 22:33:30;;;;;;;21.90;10.63;;;;;;;14.03;73.77;100386.25;10397252;28;20052;-61
2024/03/13 22:38:32;;;;;;;21.75;10.60;;;;;;;14.00;73.59;100383.97;10390901;28;20500;-61
2024/03/13 22:43:33;;;;;;;18.67;10.02;;;;;;;14.05;73.70;100383.38;10395106;28;20221;-60
2024/03/13 22:48:34;;;;;;;21.15;9.15;;;;;;;14.06;73.61;100377.78;10396799;28;20512;-61
2024/03/13 22:53:36;;;;;;;16.75;9.07;;;;;;;14.09;73.52;100379.22;10394188;28;20061;-61
2024/03/13 22:58:38;;;;;;;14.70;8.73;;;;;;;14.02;73.57;100384.59;10394877;28;20049;-61
2024/03/13 23:03:39;;;;;;;18.58;9.07;;;;;;;14.01;73.79;100382.09;10394197;28;20045;-61
2024/03/13 23:08:40;;;;;;;14.35;7.97;;;;;;;13.97;73.76;100381.66;10397321;28;20053;-60
2024/03/13 23:13:42;;;;;;;13.15;7.22;;;;;;;13.94;74.03;100382.06;10392559;28;20061;-62